createdAt,value
2023-03-31T00:01:04.550Z,13.40
2023-03-31T00:03:34.114Z,13.40
2023-03-31T00:06:03.933Z,13.40
2023-03-31T00:08:35.507Z,13.40
2023-03-31T00:11:07.278Z,13.40
2023-03-31T00:13:36.078Z,13.40
2023-03-31T00:16:08.209Z,13.40
2023-03-31T00:18:37.403Z,13.40
2023-03-31T00:21:14.557Z,13.40
2023-03-31T00:23:43.021Z,13.40
2023-03-31T00:26:11.446Z,13.40
2023-03-31T00:28:39.429Z,13.40
2023-03-31T00:31:07.461Z,13.40
2023-03-31T00:33:35.536Z,13.40
2023-03-31T00:36:06.437Z,13.40
2023-03-31T00:38:36.700Z,13.40
2023-03-31T00:41:06.640Z,13.40
2023-03-31T00:43:35.999Z,13.40
2023-03-31T00:46:13.765Z,13.40
2023-03-31T00:48:45.804Z,13.40
2023-03-31T00:51:14.495Z,13.40
2023-03-31T00:53:44.034Z,13.40
2023-03-31T00:56:15.756Z,13.40
2023-03-31T00:58:44.841Z,13.40
2023-03-31T01:01:17.457Z,13.40
2023-03-31T01:03:46.606Z,13.40
2023-03-31T01:06:19.745Z,13.40
2023-03-31T01:08:52.347Z,13.40
2023-03-31T01:11:23.176Z,13.30
2023-03-31T01:13:56.052Z,13.30
2023-03-31T01:16:24.223Z,13.30
2023-03-31T01:18:52.522Z,13.20
2023-03-31T01:21:47.236Z,13.20
2023-03-31T01:24:51.911Z,13.10
2023-03-31T01:27:43.845Z,13.10
2023-03-31T01:30:36.435Z,13.00
2023-03-31T01:33:36.933Z,12.90
2023-03-31T01:36:40.083Z,12.80
2023-03-31T01:39:40.935Z,12.80
2023-03-31T01:42:17.736Z,12.70
2023-03-31T01:44:52.814Z,12.60
2023-03-31T01:47:29.167Z,12.50
2023-03-31T01:50:03.216Z,12.50
2023-03-31T01:52:42.337Z,12.50
2023-03-31T01:55:15.451Z,12.50
2023-03-31T01:57:50.273Z,12.50
2023-03-31T02:00:20.954Z,12.50
2023-03-31T02:02:53.504Z,12.40
2023-03-31T02:05:25.932Z,12.40
2023-03-31T02:07:57.543Z,12.50
2023-03-31T02:10:28.577Z,12.50
2023-03-31T02:12:59.105Z,12.50
2023-03-31T02:15:31.360Z,12.50
2023-03-31T02:18:03.670Z,12.40
2023-03-31T02:20:32.596Z,12.50
2023-03-31T02:23:01.575Z,12.50
2023-03-31T02:25:36.648Z,12.50
2023-03-31T02:28:11.740Z,12.50
2023-03-31T02:30:46.553Z,12.50
2023-03-31T02:33:15.746Z,12.60
2023-03-31T02:35:43.962Z,12.60
2023-03-31T02:38:12.102Z,12.60
2023-03-31T02:40:40.343Z,12.70
2023-03-31T02:43:09.824Z,12.70
2023-03-31T02:45:43.996Z,12.70
2023-03-31T02:48:17.326Z,12.70
2023-03-31T02:51:27.033Z,12.70
2023-03-31T02:54:08.429Z,12.70
2023-03-31T02:56:47.666Z,12.70
2023-03-31T02:59:28.096Z,12.70
2023-03-31T03:02:09.217Z,12.80
2023-03-31T03:04:58.455Z,12.80
2023-03-31T03:07:33.867Z,12.90
2023-03-31T03:10:05.672Z,12.80
2023-03-31T03:12:39.820Z,12.80
2023-03-31T03:15:12.367Z,12.80
2023-03-31T03:17:43.530Z,12.80
2023-03-31T03:20:13.862Z,12.80
2023-03-31T03:22:42.186Z,12.80
2023-03-31T03:25:12.777Z,12.80
2023-03-31T03:27:41.542Z,12.80
2023-03-31T03:30:14.323Z,12.80
2023-03-31T03:32:43.104Z,12.80
2023-03-31T03:35:12.034Z,12.80
2023-03-31T03:37:40.179Z,12.80
2023-03-31T03:40:10.465Z,12.80
2023-03-31T03:42:38.551Z,12.80
2023-03-31T03:45:07.795Z,12.80
2023-03-31T03:47:37.218Z,12.90
2023-03-31T03:50:06.011Z,12.80
2023-03-31T03:52:34.027Z,12.90
2023-03-31T03:55:03.524Z,12.90
2023-03-31T03:57:31.621Z,12.90
2023-03-31T03:59:59.666Z,12.90
2023-03-31T04:02:28.705Z,12.90
2023-03-31T04:04:58.490Z,12.90
2023-03-31T04:07:27.067Z,12.90
2023-03-31T04:09:55.147Z,12.90
2023-03-31T04:12:23.188Z,12.90
2023-03-31T04:14:51.175Z,13.00
2023-03-31T04:17:19.518Z,13.00
2023-03-31T04:19:50.736Z,13.00
2023-03-31T04:22:20.624Z,13.00
2023-03-31T04:24:52.808Z,13.00
2023-03-31T04:27:21.136Z,13.00
2023-03-31T04:29:54.778Z,13.00
2023-03-31T04:32:22.973Z,13.00
2023-03-31T04:34:51.690Z,13.00
2023-03-31T04:37:21.033Z,13.00
2023-03-31T04:39:50.607Z,13.00
2023-03-31T04:42:18.630Z,12.90
2023-03-31T04:44:46.736Z,12.90
2023-03-31T04:47:14.708Z,12.90
2023-03-31T04:49:42.716Z,13.00
2023-03-31T04:52:10.746Z,13.00
2023-03-31T04:54:40.077Z,13.00
2023-03-31T04:57:08.124Z,13.00
2023-03-31T04:59:36.150Z,13.00
2023-03-31T05:02:04.321Z,13.00
2023-03-31T05:04:32.444Z,13.00
2023-03-31T05:07:00.417Z,13.00
2023-03-31T05:09:28.454Z,13.00
2023-03-31T05:11:58.128Z,13.00
2023-03-31T05:14:26.379Z,13.10
2023-03-31T05:16:58.016Z,13.10
2023-03-31T05:19:26.182Z,13.10
2023-03-31T05:21:54.201Z,13.10
2023-03-31T05:24:22.200Z,13.10
2023-03-31T05:26:52.809Z,13.10
2023-03-31T05:29:23.021Z,13.20
2023-03-31T05:31:51.120Z,13.10
2023-03-31T05:34:19.130Z,13.10
2023-03-31T05:36:50.424Z,13.10
2023-03-31T05:39:18.719Z,13.00
2023-03-31T05:41:46.749Z,13.00
2023-03-31T05:44:14.907Z,13.00
2023-03-31T05:46:44.429Z,13.00
2023-03-31T05:49:12.577Z,13.00
2023-03-31T05:51:40.550Z,13.00
2023-03-31T05:54:08.828Z,13.10
2023-03-31T05:56:36.895Z,13.20
2023-03-31T05:59:05.360Z,13.30
2023-03-31T06:01:34.082Z,13.40
2023-03-31T06:04:03.744Z,13.50
2023-03-31T06:06:34.010Z,13.60
2023-03-31T06:09:03.456Z,13.70
2023-03-31T06:11:31.618Z,13.90
2023-03-31T06:13:59.676Z,13.90
2023-03-31T06:16:28.904Z,14.00
2023-03-31T06:18:57.149Z,14.00
2023-03-31T06:21:26.501Z,14.10
2023-03-31T06:23:56.184Z,14.10
2023-03-31T06:26:24.209Z,14.10
2023-03-31T06:28:52.195Z,14.10
2023-03-31T06:31:22.132Z,14.20
2023-03-31T06:33:50.230Z,14.20
2023-03-31T06:36:21.078Z,14.20
2023-03-31T06:38:51.423Z,14.30
2023-03-31T06:41:20.650Z,14.30
2023-03-31T06:43:48.690Z,14.30
2023-03-31T06:46:17.047Z,14.30
2023-03-31T06:48:45.073Z,14.30
2023-03-31T06:51:14.072Z,14.40
2023-03-31T06:53:42.192Z,14.50
2023-03-31T06:56:11.636Z,14.60
2023-03-31T06:58:39.648Z,14.80
2023-03-31T07:01:08.198Z,14.90
2023-03-31T07:03:36.615Z,15.00
2023-03-31T07:06:04.943Z,15.00
2023-03-31T07:08:33.031Z,14.90
2023-03-31T07:11:02.459Z,14.90
2023-03-31T07:13:31.850Z,14.80
2023-03-31T07:16:00.017Z,14.80
2023-03-31T07:18:34.436Z,14.80
2023-03-31T07:21:04.034Z,14.90
2023-03-31T07:23:33.909Z,15.00
2023-03-31T07:26:02.655Z,15.10
2023-03-31T07:28:32.802Z,15.10
2023-03-31T07:31:01.238Z,15.20
2023-03-31T07:33:29.341Z,15.30
2023-03-31T07:36:10.813Z,15.30
2023-03-31T07:38:41.873Z,15.40
2023-03-31T07:41:12.169Z,15.40
2023-03-31T07:43:41.809Z,15.50
2023-03-31T07:46:16.409Z,15.60
2023-03-31T07:48:46.382Z,15.70
2023-03-31T07:51:15.013Z,15.80
2023-03-31T07:53:43.424Z,15.80
2023-03-31T07:56:11.604Z,15.90
2023-03-31T07:58:40.983Z,15.90
2023-03-31T08:01:09.164Z,16.00
2023-03-31T08:03:37.383Z,16.10
2023-03-31T08:06:05.932Z,16.10
2023-03-31T08:08:34.033Z,16.10
2023-03-31T08:11:02.261Z,16.20
2023-03-31T08:13:30.426Z,16.30
2023-03-31T08:15:59.823Z,16.30
2023-03-31T08:18:27.928Z,16.40
2023-03-31T08:20:55.921Z,16.50
2023-03-31T08:23:23.900Z,16.60
2023-03-31T08:25:51.894Z,16.80
2023-03-31T08:28:19.854Z,16.90
2023-03-31T08:30:48.094Z,17.00
2023-03-31T08:33:17.938Z,17.10
2023-03-31T08:35:46.010Z,17.30
2023-03-31T08:38:13.991Z,17.40
2023-03-31T08:40:43.315Z,17.60
2023-03-31T08:43:15.695Z,17.70
2023-03-31T08:45:47.558Z,17.90
2023-03-31T08:48:25.651Z,18.00
2023-03-31T08:50:58.361Z,18.10
2023-03-31T08:53:29.073Z,18.30
2023-03-31T08:55:59.102Z,18.30
2023-03-31T08:58:37.133Z,18.40
2023-03-31T09:01:16.843Z,18.50
2023-03-31T09:03:55.767Z,18.40
2023-03-31T09:06:29.922Z,18.40
2023-03-31T09:09:03.818Z,18.50
2023-03-31T09:11:37.696Z,18.50
2023-03-31T09:14:17.658Z,18.50
2023-03-31T09:16:53.363Z,18.50
2023-03-31T09:19:36.588Z,18.50
2023-03-31T09:22:09.636Z,18.60
2023-03-31T09:24:48.569Z,18.70
2023-03-31T09:27:16.584Z,18.70
2023-03-31T09:29:49.498Z,18.80
2023-03-31T09:32:20.066Z,19.00
2023-03-31T09:34:53.910Z,19.10
2023-03-31T09:37:22.010Z,19.10
2023-03-31T09:39:50.245Z,19.20
2023-03-31T09:42:19.281Z,19.40
2023-03-31T09:44:50.051Z,19.50
2023-03-31T09:47:22.654Z,19.70
2023-03-31T09:49:54.010Z,19.80
2023-03-31T09:52:30.100Z,19.80
2023-03-31T09:55:01.415Z,19.70
2023-03-31T09:57:33.501Z,19.70
2023-03-31T10:00:16.464Z,19.60
2023-03-31T10:02:49.086Z,19.40
2023-03-31T10:05:28.680Z,19.10
2023-03-31T10:08:20.564Z,18.90
2023-03-31T10:10:51.442Z,18.60
2023-03-31T10:13:21.786Z,18.40
2023-03-31T10:15:53.867Z,18.30
2023-03-31T10:18:32.337Z,18.20
2023-03-31T10:21:03.568Z,18.20
2023-03-31T10:23:33.730Z,18.20
2023-03-31T10:26:03.422Z,18.20
2023-03-31T10:28:35.577Z,18.20
2023-03-31T10:31:04.300Z,18.00
2023-03-31T10:33:35.653Z,17.90
2023-03-31T10:36:13.358Z,17.90
2023-03-31T10:38:45.208Z,17.80
2023-03-31T10:41:18.696Z,17.80
2023-03-31T10:43:51.349Z,17.80
2023-03-31T10:46:19.519Z,17.90
2023-03-31T10:48:48.397Z,17.90
2023-03-31T10:51:19.950Z,18.00
2023-03-31T10:53:49.993Z,17.90
2023-03-31T10:56:35.372Z,17.90
2023-03-31T10:59:23.173Z,18.00
2023-03-31T11:02:03.416Z,18.10
2023-03-31T11:04:45.789Z,18.40
2023-03-31T11:07:32.667Z,18.60
2023-03-31T11:10:18.821Z,18.90
2023-03-31T11:12:53.558Z,19.00
2023-03-31T11:15:25.741Z,19.20
2023-03-31T11:18:07.994Z,19.40
2023-03-31T11:20:43.090Z,19.50
2023-03-31T11:23:22.330Z,19.60
2023-03-31T11:25:59.345Z,19.60
2023-03-31T11:28:54.765Z,19.60
2023-03-31T11:31:34.054Z,19.60
2023-03-31T11:34:19.911Z,19.60
2023-03-31T11:37:18.346Z,19.60
2023-03-31T11:40:01.376Z,19.70
2023-03-31T11:42:36.014Z,19.80
2023-03-31T11:45:13.660Z,19.90
2023-03-31T11:47:44.762Z,19.90
2023-03-31T11:50:15.852Z,19.90
2023-03-31T11:52:49.535Z,19.90
2023-03-31T11:55:21.802Z,19.90
2023-03-31T11:57:59.120Z,19.90
2023-03-31T12:00:32.654Z,19.90
2023-03-31T12:03:08.822Z,20.00
2023-03-31T12:05:41.321Z,19.90
2023-03-31T12:08:14.847Z,19.90
2023-03-31T12:10:49.228Z,19.90
2023-03-31T12:13:37.462Z,19.90
2023-03-31T12:16:11.905Z,19.90
2023-03-31T12:18:44.921Z,19.90
2023-03-31T12:21:12.953Z,19.90
2023-03-31T12:23:47.210Z,19.90
2023-03-31T12:26:36.164Z,19.80
2023-03-31T12:29:08.885Z,19.70
2023-03-31T12:31:39.905Z,19.40
2023-03-31T12:34:12.962Z,19.20
2023-03-31T12:36:54.117Z,19.00
2023-03-31T12:39:34.651Z,18.80
2023-03-31T12:42:21.845Z,18.80
2023-03-31T12:45:02.500Z,18.80
2023-03-31T12:47:49.452Z,18.90
2023-03-31T12:50:53.226Z,19.10
2023-03-31T12:53:30.376Z,19.30
2023-03-31T12:55:59.752Z,19.40
2023-03-31T12:58:49.766Z,19.40
2023-03-31T13:01:19.888Z,19.40
2023-03-31T13:04:11.196Z,19.30
2023-03-31T13:06:53.832Z,19.00
2023-03-31T13:09:43.169Z,18.60
2023-03-31T13:12:16.151Z,18.20
2023-03-31T13:14:47.393Z,18.00
2023-03-31T13:17:24.040Z,17.80
2023-03-31T13:19:52.638Z,17.60
2023-03-31T13:22:35.779Z,17.50
2023-03-31T13:25:34.070Z,17.50
2023-03-31T13:28:16.225Z,17.40
2023-03-31T13:30:57.553Z,17.30
2023-03-31T13:33:29.625Z,17.20
2023-03-31T13:36:19.820Z,17.20
2023-03-31T13:38:59.901Z,17.20
2023-03-31T13:41:43.186Z,17.20
2023-03-31T13:44:56.682Z,17.10
2023-03-31T13:47:50.123Z,17.00
2023-03-31T13:50:48.246Z,16.90
2023-03-31T13:53:29.014Z,16.80
2023-03-31T13:56:16.654Z,16.70
2023-03-31T13:59:18.239Z,16.50
2023-03-31T14:02:18.729Z,16.40
2023-03-31T14:05:28.764Z,16.30
2023-03-31T14:07:59.745Z,16.20
2023-03-31T14:10:31.464Z,16.10
2023-03-31T14:13:07.880Z,16.10
2023-03-31T14:15:37.973Z,15.90
2023-03-31T14:18:08.234Z,15.90
2023-03-31T14:20:49.842Z,15.80
2023-03-31T14:23:34.068Z,15.80
2023-03-31T14:26:07.481Z,15.80
2023-03-31T14:29:11.162Z,15.80
2023-03-31T14:31:46.231Z,15.80
2023-03-31T14:34:33.020Z,15.90
2023-03-31T14:37:04.962Z,15.90
2023-03-31T14:39:36.164Z,15.90
2023-03-31T14:42:06.723Z,15.90
2023-03-31T14:44:36.098Z,15.90
2023-03-31T14:47:04.339Z,15.90
2023-03-31T14:49:37.675Z,15.90
2023-03-31T14:52:16.845Z,15.90
2023-03-31T14:54:47.605Z,15.90
2023-03-31T14:57:20.649Z,15.90
2023-03-31T14:59:51.688Z,15.90
2023-03-31T15:02:31.191Z,15.90
2023-03-31T15:04:59.536Z,15.90
2023-03-31T15:07:28.972Z,15.90
2023-03-31T15:09:57.109Z,15.80
2023-03-31T15:12:25.761Z,15.80
2023-03-31T15:14:58.340Z,15.80
2023-03-31T15:17:32.439Z,15.80
2023-03-31T15:20:01.745Z,15.70
2023-03-31T15:22:31.525Z,15.70
2023-03-31T15:24:59.545Z,15.60
2023-03-31T15:27:37.021Z,15.60
2023-03-31T15:30:09.048Z,15.60
2023-03-31T15:32:39.002Z,15.50
2023-03-31T15:37:59.852Z,15.50
2023-03-31T15:40:29.894Z,15.50
2023-03-31T15:45:48.271Z,15.60
2023-03-31T15:48:20.984Z,15.60
2023-03-31T15:50:49.582Z,15.50
2023-03-31T15:53:36.798Z,15.50
2023-03-31T15:56:05.765Z,15.50
2023-03-31T15:58:54.095Z,15.40
2023-03-31T16:01:23.084Z,15.40
2023-03-31T16:03:54.067Z,15.30
2023-03-31T16:06:28.136Z,15.30
2023-03-31T16:09:02.417Z,15.30
2023-03-31T16:11:40.292Z,15.30
2023-03-31T16:14:14.767Z,15.30
2023-03-31T16:16:48.307Z,15.30
2023-03-31T16:19:16.716Z,15.30
2023-03-31T16:21:50.128Z,15.20
2023-03-31T16:24:20.921Z,15.20
2023-03-31T16:26:49.841Z,15.20
2023-03-31T16:29:22.794Z,15.20
2023-03-31T16:31:51.264Z,15.20
2023-03-31T16:34:19.278Z,15.10
2023-03-31T16:36:47.601Z,15.00
2023-03-31T16:39:16.119Z,14.90
2023-03-31T16:41:45.532Z,14.90
2023-03-31T16:44:13.521Z,14.90
2023-03-31T16:46:41.564Z,14.90
2023-03-31T16:49:09.593Z,14.80
2023-03-31T16:51:37.571Z,14.80
2023-03-31T16:54:05.625Z,14.80
2023-03-31T16:56:33.661Z,14.90
2023-03-31T16:59:03.744Z,14.80
2023-03-31T17:01:31.819Z,14.90
2023-03-31T17:03:59.905Z,14.90
2023-03-31T17:06:28.295Z,14.90
2023-03-31T17:08:56.357Z,14.80
2023-03-31T17:11:24.381Z,14.80
2023-03-31T17:13:54.233Z,14.80
2023-03-31T17:16:32.979Z,14.80
2023-03-31T17:19:08.521Z,14.80
2023-03-31T17:21:37.376Z,14.70
2023-03-31T17:24:08.425Z,14.60
2023-03-31T17:26:37.610Z,14.60
2023-03-31T17:29:05.701Z,14.60
2023-03-31T17:31:35.205Z,14.60
2023-03-31T17:34:03.206Z,14.50
2023-03-31T17:36:31.652Z,14.50
2023-03-31T17:39:00.166Z,14.50
2023-03-31T17:41:29.865Z,14.50
2023-03-31T17:43:59.950Z,14.40
2023-03-31T17:46:28.332Z,14.40
2023-03-31T17:48:59.083Z,14.40
2023-03-31T17:51:27.738Z,14.40
2023-03-31T17:53:56.271Z,14.40
2023-03-31T17:56:24.550Z,14.40
2023-03-31T17:58:53.486Z,14.40
2023-03-31T18:01:21.637Z,14.40
2023-03-31T18:03:49.684Z,14.40
2023-03-31T18:06:19.205Z,14.40
2023-03-31T18:08:47.368Z,14.40
2023-03-31T18:11:15.662Z,14.40
2023-03-31T18:13:43.688Z,14.40
2023-03-31T18:16:13.002Z,14.40
2023-03-31T18:18:41.585Z,14.40
2023-03-31T18:21:11.447Z,14.40
2023-03-31T18:23:41.739Z,14.40
2023-03-31T18:26:10.966Z,14.40
2023-03-31T18:28:40.109Z,14.40
2023-03-31T18:31:09.377Z,14.30
2023-03-31T18:33:37.778Z,14.30
2023-03-31T18:36:06.934Z,14.40
2023-03-31T18:38:36.939Z,14.40
2023-03-31T18:41:07.271Z,14.30
2023-03-31T18:43:35.261Z,14.30
2023-03-31T18:46:03.276Z,14.30
2023-03-31T18:48:31.289Z,14.30
2023-03-31T18:50:59.386Z,14.20
2023-03-31T18:53:27.920Z,14.20
2023-03-31T18:55:57.482Z,14.20
2023-03-31T18:58:28.823Z,14.20
2023-03-31T19:00:57.488Z,14.20
2023-03-31T19:03:26.576Z,14.20
2023-03-31T19:06:00.480Z,14.20
2023-03-31T19:08:28.573Z,14.20
2023-03-31T19:11:05.308Z,14.10
2023-03-31T19:13:34.710Z,14.10
2023-03-31T19:16:02.925Z,14.10
2023-03-31T19:18:31.072Z,14.20
2023-03-31T19:21:00.487Z,14.10
2023-03-31T19:23:29.077Z,14.10
2023-03-31T19:25:59.612Z,14.10
2023-03-31T19:28:29.822Z,14.10
2023-03-31T19:30:59.999Z,14.10
2023-03-31T19:33:28.357Z,14.10
2023-03-31T19:35:56.650Z,14.10
2023-03-31T19:38:26.833Z,14.10
2023-03-31T19:40:54.855Z,14.10
2023-03-31T19:43:25.356Z,14.10
2023-03-31T19:45:56.891Z,14.10
2023-03-31T19:48:27.095Z,14.10
2023-03-31T19:50:57.232Z,14.10
2023-03-31T19:53:25.383Z,14.10
2023-03-31T19:55:57.833Z,14.00
2023-03-31T19:58:26.256Z,14.00
2023-03-31T20:00:55.351Z,13.90
2023-03-31T20:03:24.873Z,13.90
2023-03-31T20:06:02.249Z,13.80
2023-03-31T20:08:30.234Z,13.80
2023-03-31T20:11:00.613Z,13.80
2023-03-31T20:13:28.974Z,13.80
2023-03-31T20:16:01.870Z,13.80
2023-03-31T20:18:30.277Z,13.90
2023-03-31T20:21:11.307Z,13.90
2023-03-31T20:23:41.039Z,13.80
2023-03-31T20:26:10.636Z,13.80
2023-03-31T20:28:39.498Z,13.90
2023-03-31T20:31:08.348Z,13.90
2023-03-31T20:33:36.413Z,13.90
2023-03-31T20:36:06.129Z,13.90
2023-03-31T20:38:37.468Z,13.90
2023-03-31T20:41:05.857Z,13.90
2023-03-31T20:43:34.551Z,13.90
2023-03-31T20:46:04.910Z,13.90
2023-03-31T20:48:34.754Z,13.90
2023-03-31T20:51:03.010Z,13.90
2023-03-31T20:53:31.271Z,13.90
2023-03-31T20:56:00.640Z,13.90
2023-03-31T20:58:28.636Z,14.00
2023-03-31T21:00:59.051Z,14.00
2023-03-31T21:03:27.189Z,14.00
2023-03-31T21:05:55.204Z,14.00
2023-03-31T21:08:23.375Z,13.90
2023-03-31T21:10:51.642Z,13.90
2023-03-31T21:13:20.978Z,13.90
2023-03-31T21:15:50.389Z,13.90
2023-03-31T21:18:18.366Z,13.90
2023-03-31T21:20:51.546Z,13.90
2023-03-31T21:23:20.378Z,13.90
2023-03-31T21:25:49.331Z,13.90
2023-03-31T21:28:19.833Z,13.80
2023-03-31T21:30:54.325Z,13.80
2023-03-31T21:33:22.821Z,13.80
2023-03-31T21:35:52.057Z,13.80
2023-03-31T21:38:21.059Z,13.80
2023-03-31T21:40:51.670Z,13.80
2023-03-31T21:43:20.841Z,13.80
2023-03-31T21:45:49.460Z,13.80
2023-03-31T21:48:19.452Z,13.80
2023-03-31T21:50:47.462Z,13.80
2023-03-31T21:53:15.443Z,13.80
2023-03-31T21:55:44.681Z,13.70
2023-03-31T21:58:12.725Z,13.70
2023-03-31T22:00:41.121Z,13.70
2023-03-31T22:03:25.648Z,13.70
2023-03-31T22:05:56.623Z,13.70
2023-03-31T22:08:25.339Z,13.70
2023-03-31T22:10:54.216Z,13.70
2023-03-31T22:13:23.593Z,13.70
2023-03-31T22:15:52.027Z,13.70
2023-03-31T22:18:21.909Z,13.70
2023-03-31T22:20:50.477Z,13.70
2023-03-31T22:23:20.822Z,13.70
2023-03-31T22:25:48.905Z,13.70
2023-03-31T22:28:17.897Z,13.70
2023-03-31T22:30:46.388Z,13.60
2023-03-31T22:33:14.416Z,13.60
2023-03-31T22:35:42.482Z,13.60
2023-03-31T22:38:13.388Z,13.60
2023-03-31T22:40:42.746Z,13.60
2023-03-31T22:43:10.834Z,13.60
2023-03-31T22:45:39.091Z,13.60
2023-03-31T22:48:07.772Z,13.60
2023-03-31T22:50:35.712Z,13.60
2023-03-31T22:53:03.695Z,13.60
2023-03-31T22:55:31.914Z,13.60
2023-03-31T22:58:01.398Z,13.60
2023-03-31T23:00:29.427Z,13.60
2023-03-31T23:02:57.500Z,13.60
2023-03-31T23:05:25.542Z,13.60
2023-03-31T23:07:53.601Z,13.60
2023-03-31T23:10:21.890Z,13.50
2023-03-31T23:12:50.037Z,13.50
2023-03-31T23:15:19.499Z,13.50
2023-03-31T23:17:47.666Z,13.50
2023-03-31T23:20:16.138Z,13.50
2023-03-31T23:22:44.174Z,13.50
2023-03-31T23:25:12.152Z,13.50
2023-03-31T23:27:40.120Z,13.50
2023-03-31T23:30:09.426Z,13.50
2023-03-31T23:32:43.073Z,13.40
2023-03-31T23:35:11.487Z,13.40
2023-03-31T23:37:39.747Z,13.40
2023-03-31T23:40:08.963Z,13.40
2023-03-31T23:42:43.011Z,13.40
2023-03-31T23:45:12.111Z,13.40
2023-03-31T23:47:42.468Z,13.40
2023-03-31T23:50:11.330Z,13.40
2023-03-31T23:52:39.309Z,13.40
2023-03-31T23:55:07.502Z,13.40
2023-03-31T23:57:35.491Z,13.40
